Details From NWWW - Noumea La Tontouta
To NTAA - Faaa
Flight Number -
Tags Generated
Created
Modified
Stats Distance 2,504 nm / 4,637 km
Max Altitude 0 ft / 0 m
Waypoints 5
Social Downloads 1
Likes 0
Share VATSIM

Download

Looking for another format? Having issues loading an existing format? Contact us
Advertisement - Login to hide

Notes

Generated

Route

NWWW DOGSA TAPAP ATAMU NTAA

ID Type Via Altitude Latitude Longitude Leg Dist Tot Dist Heading (true) Name
O NWWW APT - 0 ft / 0 m -22.00756˚ 166.20102˚ - 0 nm - -
DOGSA FIX - 0 ft / 0 m -20.42569˚ -165.00000˚ 1612 nm 1612 nm 92° / 81° -
TAPAP FIX - 0 ft / 0 m -18.00667˚ -151.64833˚ 770 nm 2383 nm 81° / 77° -
ATAMU FIX - 0 ft / 0 m -17.52806˚ -149.69528˚ 115 nm 2498 nm 76° / 75° -
O NTAA APT - 0 ft / 0 m -17.56288˚ -149.62043˚ 4 nm 2503 nm 116° / 116° -

Altitude Profile

Advertisement - Login to hide

Weather


0- 5 10 15 20 25 30 35+ Temperature / ° C

Clouds and Precipitation
Forecast for 2017-12-18 00:00 UTC. Updated an hour ago

Ground ~20,000 ft ~40,000 ft Winds

NWWW

Details ICAO NWWW (NOU)
Name Noumea La Tontouta
Region New Caledonia
Timezone Pacific/Noumea (UTC+11.0)
Stats Elevation 51 ft / 16 m (AMSL)
Location -22.014529° 166.213022°
Runways 1
Magnetic Variation 12.335° E

METAR

NWWW 172000Z AUTO VRB02KT CAVOK 24/14 Q1010 NOSIG

Decode

TAF

TAF NWWW 171700Z 1718/1818 VRB02KT 9999 SCT050 BECMG 1722/1724 14018KT BECMG 1808/1810 12008KT

Decode

Departure Runways

ID Width Length Bearing (true) Bearing (mag) Surface Threshold Offset Overrun Length
11 148 ft / 45 m 10,666 ft / 3,251 m 121.21° 108.88° Asphalt 0 ft / 0 m 338 ft / 103 m
29 148 ft / 45 m 10,666 ft / 3,251 m 301.19° 288.86° Asphalt 0 ft / 0 m 354 ft / 108 m

NTAA

Details ICAO NTAA (PPT)
Name Faaa
Region French Polynesia
Timezone Pacific/Tahiti (UTC-10.0)
Stats Elevation 5 ft / 2 m (AMSL)
Location -17.553765° -149.607255°
Runways 1
Magnetic Variation 12.875° E

METAR

NTAA 172000Z 06011KT 9999 FEW020 SCT050 BKN300 29/24 Q1009 NOSIG

Decode

TAF

TAF NTAA 171700Z 1718/1824 01003KT 9999 FEW020 BKN045 BECMG 1719/1720 02013KT BECMG 1804/1806 01003KT PROB30 TEMPO 1718/1809 03015G25KT 2800 SHRA FEW014CB BKN017 BKN040 FM181200 03003KT 9999 FEW020 SCT050 BECMG 1818/1820 02013KT

Decode

Destination Runways

ID Width Length Bearing (true) Bearing (mag) Surface Threshold Offset Overrun Length
04 148 ft / 45 m 11,323 ft / 3,451 m 54.04° 41.16° Asphalt 1,099 ft / 335 m 0 ft / 0 m
22 148 ft / 45 m 11,323 ft / 3,451 m 234.03° 221.15° Asphalt 479 ft / 146 m 0 ft / 0 m

Approach Navaids

Runway Type Ident Frequency Range Bearing (true) Bearing (mag) Slope Elevation
04 Localiser PT 109.90 MHz 18 nm / 33 km 54.05° 41.18° - 20 ft / 6 m (AMSL)
04 Glidescope PT 109.90 MHz 10 nm / 19 km 54.03° 41.16° 3.00° 59 ft / 18 m (AMSL)
04 DME PT 109.90 MHz 18 nm / 33 km - - - 59 ft / 18 m (AMSL)

Popular Alternatives